Time;durP1;ratioP1;P1;durP2;ratioP2;P2;SDS_P1;SDS_P2;PMS_P1;PMS_P2;Temp;Humidity;BMP_temperature;BMP_pressure;BME280_temperature;BME280_humidity;BME280_pressure;Samples;Min_cycle;Max_cycle;Signal;HPM_P1;HPM_P2
2023/03/15 00:01:45;;;;;;;1.80;1.70;;;2.70;97.30;;;;;;5066794;28;20220;-83
2023/03/15 00:04:11;;;;;;;;;;;2.70;97.30;;;;;;5089054;28;20268;-85
2023/03/15 00:06:36;;;;;;;;;;;2.60;97.30;;;;;;5082561;28;20240;-85
2023/03/15 00:09:02;;;;;;;;;;;2.60;97.30;;;;;;5069677;28;20228;-85
2023/03/15 00:11:32;;;;;;;2.00;1.60;;;2.60;97.30;;;;;;5063541;28;20307;-84
2023/03/15 00:13:58;;;;;;;6.10;2.10;;;2.60;97.30;;;;;;5065585;28;20251;-85
2023/03/15 00:16:25;;;;;;;1.10;1.00;;;2.60;97.30;;;;;;5062434;28;20421;-85
2023/03/15 00:18:52;;;;;;;1.10;1.00;;;2.60;97.30;;;;;;5075231;28;20303;-83
2023/03/15 00:21:17;;;;;;;5.50;2.20;;;2.60;97.30;;;;;;5075251;28;20860;-84
2023/03/15 00:23:43;;;;;;;1.10;1.00;;;2.60;97.30;;;;;;5057958;28;20356;-85
2023/03/15 00:26:09;;;;;;;1.10;1.00;;;2.60;97.30;;;;;;5084764;28;20261;-85
2023/03/15 00:28:34;;;;;;;1.37;1.27;;;2.60;97.30;;;;;;5087356;28;20183;-85
2023/03/15 00:31:21;;;;;;;1.87;1.77;;;2.60;97.30;;;;;;5080477;28;20454;-85
2023/03/15 00:33:47;;;;;;;1.13;1.10;;;2.60;97.30;;;;;;5066664;28;20692;-85
2023/03/15 00:36:13;;;;;;;1.00;0.90;;;2.60;97.30;;;;;;5070407;28;20210;-85
2023/03/15 00:38:41;;;;;;;1.20;1.10;;;2.60;97.30;;;;;;5072713;28;20196;-85
2023/03/15 00:41:13;;;;;;;1.10;1.00;;;2.60;97.30;;;;;;5068324;28;20221;-85
2023/03/15 00:43:38;;;;;;;1.30;1.20;;;2.60;97.30;;;;;;5065694;28;20458;-85
2023/03/15 00:46:04;;;;;;;1.87;1.80;;;2.50;97.30;;;;;;5065916;28;20401;-84
2023/03/15 00:48:30;;;;;;;1.80;1.70;;;2.50;97.30;;;;;;5076480;28;20201;-85
2023/03/15 00:51:05;;;;;;;1.50;1.40;;;2.50;97.30;;;;;;5088482;28;20814;-82
2023/03/15 00:53:31;;;;;;;1.30;1.20;;;2.50;97.30;;;;;;5069939;28;20182;-85
2023/03/15 00:55:57;;;;;;;1.10;1.10;;;2.50;97.30;;;;;;5076163;28;20982;-85
2023/03/15 00:58:23;;;;;;;4.00;2.53;;;2.50;97.30;;;;;;5081129;28;20233;-83
2023/03/15 01:00:48;;;;;;;1.20;1.10;;;2.40;97.30;;;;;;5072493;28;20179;-85
2023/03/15 01:03:14;;;;;;;1.55;1.45;;;2.40;97.30;;;;;;5058439;28;20428;-85
2023/03/15 01:05:40;;;;;;;1.10;1.00;;;2.40;97.30;;;;;;5060339;28;20213;-85
2023/03/15 01:08:05;;;;;;;1.15;1.05;;;2.40;97.30;;;;;;5077330;28;20178;-85
2023/03/15 01:10:34;;;;;;;1.10;1.00;;;2.40;97.30;;;;;;5069750;28;20206;-85
2023/03/15 01:12:59;;;;;;;1.10;1.00;;;2.40;97.30;;;;;;5061143;28;20259;-85
2023/03/15 01:15:25;;;;;;;1.10;1.00;;;2.40;97.30;;;;;;5059983;28;20451;-85
2023/03/15 01:17:50;;;;;;;2.20;1.57;;;2.40;97.30;;;;;;5072555;28;20178;-84
2023/03/15 01:20:16;;;;;;;1.20;1.10;;;2.40;97.30;;;;;;5064678;28;20181;-85
2023/03/15 01:22:41;;;;;;;1.97;1.87;;;2.40;97.30;;;;;;5064875;28;20213;-85
2023/03/15 01:25:08;;;;;;;1.13;1.03;;;2.40;97.30;;;;;;5067442;28;20556;-85
2023/03/15 01:27:33;;;;;;;1.20;1.10;;;2.40;97.30;;;;;;5066229;28;20175;-84
2023/03/15 01:29:59;;;;;;;1.20;1.10;;;2.40;97.30;;;;;;5058571;28;20455;-85
2023/03/15 01:32:25;;;;;;;1.10;1.00;;;2.30;97.30;;;;;;5074854;28;20190;-85
2023/03/15 01:34:51;;;;;;;5.13;1.30;;;2.30;97.30;;;;;;5064127;28;20187;-85
2023/03/15 01:37:16;;;;;;;1.43;1.33;;;2.30;97.30;;;;;;5067340;28;20784;-85
2023/03/15 01:39:42;;;;;;;1.10;1.00;;;2.30;97.30;;;;;;5084611;28;20162;-84
2023/03/15 01:42:09;;;;;;;13.13;1.63;;;2.30;97.30;;;;;;5064548;28;20269;-85
2023/03/15 01:44:56;;;;;;;1.40;1.30;;;2.20;97.30;;;;;;5065424;28;20202;-84
2023/03/15 01:47:24;;;;;;;1.10;1.00;;;2.20;97.30;;;;;;5059613;28;20397;-85
2023/03/15 01:50:01;;;;;;;1.30;1.20;;;2.20;97.30;;;;;;5064529;28;20474;-84
2023/03/15 01:52:34;;;;;;;2.23;2.03;;;2.20;97.30;;;;;;5056306;28;20404;-84
2023/03/15 01:55:19;;;;;;;1.80;1.70;;;2.20;97.30;;;;;;5064719;28;20243;-86
2023/03/15 01:57:55;;;;;;;1.10;1.00;;;2.20;97.30;;;;;;5076353;28;20202;-85
2023/03/15 02:00:21;;;;;;;1.20;1.10;;;2.20;97.30;;;;;;5070942;28;20450;-84
2023/03/15 02:02:51;;;;;;;5.13;1.83;;;2.20;97.30;;;;;;5074747;28;20234;-85
2023/03/15 02:05:27;;;;;;;1.10;1.00;;;2.20;97.30;;;;;;5073022;28;20225;-84
2023/03/15 02:07:53;;;;;;;1.00;0.90;;;2.10;97.30;;;;;;5082363;28;20528;-84
2023/03/15 02:10:29;;;;;;;1.30;1.20;;;2.10;97.30;;;;;;5062184;28;20476;-85
2023/03/15 02:12:57;;;;;;;1.20;1.10;;;2.10;97.30;;;;;;5057854;28;20212;-84
2023/03/15 02:15:22;;;;;;;1.20;1.10;;;2.10;97.30;;;;;;5068842;28;20213;-84
2023/03/15 02:17:48;;;;;;;3.70;1.95;;;2.00;97.30;;;;;;5061909;28;20395;-85
2023/03/15 02:20:36;;;;;;;1.80;1.70;;;2.00;97.30;;;;;;5073528;28;20672;-85
2023/03/15 02:23:05;;;;;;;1.00;0.90;;;2.00;97.30;;;;;;5064912;28;20231;-85
2023/03/15 02:26:00;;;;;;;3.10;2.07;;;2.00;97.30;;;;;;5081449;28;20407;-85
2023/03/15 02:28:26;;;;;;;1.20;1.10;;;2.00;97.30;;;;;;5070860;28;20421;-84
2023/03/15 02:30:51;;;;;;;1.30;1.20;;;2.00;97.30;;;;;;5066977;28;20233;-85
2023/03/15 02:33:26;;;;;;;1.10;1.00;;;1.90;97.30;;;;;;5065567;28;20587;-85
2023/03/15 02:35:52;;;;;;;1.40;1.30;;;1.90;97.30;;;;;;5064455;28;20581;-84
2023/03/15 02:38:18;;;;;;;1.00;0.90;;;1.90;97.30;;;;;;5070912;28;20567;-85
2023/03/15 02:40:45;;;;;;;1.20;1.10;;;1.90;97.30;;;;;;5070922;28;20398;-85
2023/03/15 02:43:15;;;;;;;1.10;1.00;;;1.90;97.30;;;;;;5064243;28;20502;-85
2023/03/15 02:45:41;;;;;;;1.20;1.10;;;1.90;97.30;;;;;;5068092;28;20616;-85
2023/03/15 02:48:08;;;;;;;1.20;1.10;;;1.90;97.30;;;;;;5060120;28;20405;-85
2023/03/15 02:50:33;;;;;;;1.10;1.00;;;1.90;97.30;;;;;;5061882;28;20540;-84
2023/03/15 02:53:01;;;;;;;1.10;1.00;;;1.80;97.30;;;;;;5063120;28;20448;-86
2023/03/15 02:55:27;;;;;;;14.33;2.40;;;1.80;97.30;;;;;;5064408;28;20247;-86
2023/03/15 02:57:53;;;;;;;1.00;0.90;;;1.80;97.30;;;;;;5086174;28;20421;-85
2023/03/15 03:00:19;;;;;;;1.03;0.93;;;1.80;97.30;;;;;;5065538;28;20191;-85
2023/03/15 03:02:46;;;;;;;1.40;1.30;;;1.70;97.30;;;;;;5078072;28;20164;-84
2023/03/15 03:05:14;;;;;;;1.10;1.00;;;1.70;97.30;;;;;;5069754;28;20714;-85
2023/03/15 03:07:43;;;;;;;1.63;1.53;;;1.70;97.30;;;;;;5058092;28;20417;-85
2023/03/15 03:10:15;;;;;;;1.20;1.10;;;1.60;97.30;;;;;;5085730;28;20273;-84
2023/03/15 03:12:41;;;;;;;6.47;1.73;;;1.60;97.30;;;;;;5067124;28;20417;-85
2023/03/15 03:15:07;;;;;;;1.13;1.03;;;1.60;97.30;;;;;;5072249;28;20277;-85
2023/03/15 03:17:36;;;;;;;1.20;1.10;;;1.60;97.30;;;;;;5082481;28;20180;-86
2023/03/15 03:20:09;;;;;;;1.40;1.30;;;1.60;97.30;;;;;;5080900;28;20217;-85
2023/03/15 03:22:36;;;;;;;1.03;0.93;;;1.50;97.30;;;;;;5060824;28;20516;-85
2023/03/15 03:25:02;;;;;;;4.30;2.05;;;1.50;97.30;;;;;;5062454;28;20318;-85
2023/03/15 03:27:28;;;;;;;1.10;1.00;;;1.50;97.30;;;;;;5070189;28;20231;-85
2023/03/15 03:29:53;;;;;;;1.00;0.90;;;1.50;97.30;;;;;;5067253;28;20621;-84
2023/03/15 03:32:19;;;;;;;2.70;1.20;;;1.50;97.30;;;;;;5064064;28;20276;-85
2023/03/15 03:34:47;;;;;;;1.10;1.00;;;1.40;97.30;;;;;;5068366;28;20197;-84
2023/03/15 03:37:18;;;;;;;1.00;0.90;;;1.40;97.30;;;;;;5067789;28;20184;-84
2023/03/15 03:39:44;;;;;;;1.10;1.00;;;1.40;97.30;;;;;;5061558;28;20210;-85
2023/03/15 03:42:10;;;;;;;1.20;1.10;;;1.40;97.30;;;;;;5066052;28;20623;-85
2023/03/15 03:44:36;;;;;;;1.50;1.40;;;1.30;97.30;;;;;;5067194;28;20201;-86
2023/03/15 03:47:01;;;;;;;5.45;2.35;;;1.30;97.30;;;;;;5068220;28;20217;-85
2023/03/15 03:49:27;;;;;;;;;;;1.30;97.30;;;;;;5062424;28;20157;-84
2023/03/15 03:51:52;;;;;;;1.50;1.40;;;1.30;97.30;;;;;;5059598;28;20535;-84
2023/03/15 03:54:20;;;;;;;2.25;2.05;;;1.30;97.30;;;;;;5064503;28;20701;-85
2023/03/15 03:56:46;;;;;;;1.00;0.90;;;1.30;97.30;;;;;;5072810;28;20170;-85
2023/03/15 03:59:11;;;;;;;1.10;1.00;;;1.20;97.30;;;;;;5064047;28;20395;-86
2023/03/15 04:01:37;;;;;;;1.20;1.10;;;1.20;97.30;;;;;;5071761;28;20451;-84
2023/03/15 04:04:02;;;;;;;1.25;1.15;;;1.20;97.30;;;;;;5069358;28;20252;-84
2023/03/15 04:06:28;;;;;;;0.90;0.80;;;1.20;97.30;;;;;;5064414;28;20540;-85
2023/03/15 04:08:53;;;;;;;1.30;1.20;;;1.20;97.30;;;;;;5066553;28;20264;-85
2023/03/15 04:11:19;;;;;;;1.10;1.00;;;1.20;97.30;;;;;;5064801;28;20667;-85
2023/03/15 04:13:44;;;;;;;1.60;1.50;;;1.20;97.30;;;;;;5068396;28;20208;-84
2023/03/15 04:16:11;;;;;;;;;;;1.20;97.30;;;;;;5067472;28;20172;-85
2023/03/15 04:18:39;;;;;;;1.10;1.00;;;1.20;97.30;;;;;;5071537;28;20259;-84
2023/03/15 04:21:09;;;;;;;1.30;1.20;;;1.20;97.30;;;;;;5067863;28;20408;-84
2023/03/15 04:23:35;;;;;;;1.65;1.55;;;1.20;97.30;;;;;;5067792;28;20563;-84
2023/03/15 04:26:02;;;;;;;1.50;1.40;;;1.20;97.30;;;;;;5090530;28;20208;-84
2023/03/15 04:28:29;;;;;;;;;;;1.20;97.30;;;;;;5074618;28;20818;-85
2023/03/15 04:30:57;;;;;;;1.10;1.00;;;1.20;97.30;;;;;;5077487;28;20268;-85
2023/03/15 04:33:23;;;;;;;;;;;1.20;97.30;;;;;;5067241;28;20900;-85
2023/03/15 04:35:51;;;;;;;;;;;1.20;97.30;;;;;;5065727;28;20255;-84
2023/03/15 04:38:17;;;;;;;;;;;1.20;97.30;;;;;;5086341;28;20214;-84
2023/03/15 04:40:42;;;;;;;;;;;1.20;97.30;;;;;;5064670;28;20674;-84
2023/03/15 04:43:08;;;;;;;;;;;1.20;97.30;;;;;;5061725;28;20202;-85
2023/03/15 04:45:33;;;;;;;;;;;1.10;97.30;;;;;;5063158;28;20175;-84
2023/03/15 04:48:00;;;;;;;;;;;1.10;97.30;;;;;;5084113;28;20188;-85
2023/03/15 04:50:26;;;;;;;1.10;1.00;;;1.10;97.30;;;;;;5067208;28;20573;-85
2023/03/15 04:52:51;;;;;;;1.00;0.90;;;1.10;97.30;;;;;;5070986;28;20524;-85
2023/03/15 04:55:17;;;;;;;1.10;1.00;;;1.10;97.30;;;;;;5065959;28;20246;-85
2023/03/15 04:57:42;;;;;;;1.10;1.00;;;1.10;97.30;;;;;;5062043;28;20228;-85
2023/03/15 05:00:10;;;;;;;0.95;0.85;;;1.10;97.30;;;;;;5072158;28;20200;-85
2023/03/15 05:02:38;;;;;;;1.03;0.93;;;1.10;97.30;;;;;;5062553;28;20178;-85
2023/03/15 05:05:05;;;;;;;1.20;1.10;;;1.10;97.30;;;;;;5066427;28;20776;-84
2023/03/15 05:07:32;;;;;;;1.20;1.10;;;1.10;97.30;;;;;;5051898;28;20444;-85
2023/03/15 05:09:58;;;;;;;1.47;1.37;;;1.10;97.30;;;;;;5048363;28;20483;-85
2023/03/15 05:12:23;;;;;;;1.50;1.40;;;1.10;97.30;;;;;;5052703;28;20526;-86
2023/03/15 05:14:49;;;;;;;1.10;1.00;;;1.10;97.30;;;;;;5046712;28;20610;-86
2023/03/15 05:17:14;;;;;;;1.10;1.00;;;1.10;97.30;;;;;;5053938;28;20149;-85
2023/03/15 05:19:41;;;;;;;1.20;1.10;;;1.20;97.30;;;;;;5071763;28;20200;-86
2023/03/15 05:22:07;;;;;;;1.05;0.95;;;1.20;97.30;;;;;;5049052;28;20192;-85
2023/03/15 05:24:32;;;;;;;1.90;1.27;;;1.20;97.30;;;;;;5051059;28;20735;-84
2023/03/15 05:26:58;;;;;;;1.10;1.00;;;1.20;97.30;;;;;;5070765;28;20178;-85
2023/03/15 05:29:23;;;;;;;1.20;1.10;;;1.30;97.30;;;;;;5052985;28;20175;-85
2023/03/15 05:31:51;;;;;;;1.65;1.55;;;1.30;97.30;;;;;;5048485;28;20275;-86
2023/03/15 05:34:17;;;;;;;1.10;1.00;;;1.30;97.30;;;;;;5070551;28;20222;-85
2023/03/15 05:36:42;;;;;;;3.30;1.97;;;1.40;97.30;;;;;;5046663;28;20423;-85
2023/03/15 05:39:08;;;;;;;3.43;1.30;;;1.40;97.30;;;;;;5060256;28;20413;-87
2023/03/15 05:41:34;;;;;;;1.10;1.00;;;1.40;97.30;;;;;;5085910;28;20197;-85
2023/03/15 05:43:59;;;;;;;1.57;1.53;;;1.50;97.30;;;;;;5054666;28;20290;-87
2023/03/15 05:46:25;;;;;;;1.10;1.00;;;1.50;97.30;;;;;;5042333;28;20175;-85
2023/03/15 05:48:52;;;;;;;1.10;1.00;;;1.60;97.30;;;;;;5046930;28;20180;-85
2023/03/15 05:51:18;;;;;;;1.63;1.17;;;1.60;97.30;;;;;;5046692;28;20360;-86
2023/03/15 05:53:43;;;;;;;1.20;1.10;;;1.60;97.30;;;;;;5046887;28;20251;-85
2023/03/15 05:56:09;;;;;;;1.60;1.47;;;1.70;97.30;;;;;;5054617;28;20185;-85
2023/03/15 05:58:34;;;;;;;1.40;1.30;;;1.70;97.30;;;;;;5043856;28;20214;-85
2023/03/15 06:01:02;;;;;;;1.00;0.90;;;1.80;97.30;;;;;;5051294;28;20182;-86
2023/03/15 06:03:28;;;;;;;1.20;1.10;;;1.80;97.30;;;;;;5051091;28;20239;-85
2023/03/15 06:05:54;;;;;;;1.20;1.10;;;1.90;97.30;;;;;;5100710;28;20723;-85
2023/03/15 06:08:19;;;;;;;1.30;1.20;;;1.90;97.30;;;;;;5067390;28;20758;-85
2023/03/15 06:10:45;;;;;;;1.70;1.60;;;2.00;97.30;;;;;;5080737;28;20209;-86
2023/03/15 06:13:10;;;;;;;3.57;2.70;;;2.00;97.30;;;;;;5064363;28;20164;-85
2023/03/15 06:15:36;;;;;;;3.83;2.93;;;2.00;97.30;;;;;;5088210;28;20178;-85
2023/03/15 06:18:01;;;;;;;2.23;2.03;;;2.10;97.30;;;;;;5057494;28;20304;-84
2023/03/15 06:20:27;;;;;;;1.20;1.10;;;2.10;97.30;;;;;;5077329;28;20255;-86
2023/03/15 06:22:53;;;;;;;1.20;1.10;;;2.20;97.30;;;;;;5070877;28;20205;-86
2023/03/15 06:25:18;;;;;;;1.77;1.60;;;2.20;97.30;;;;;;5064224;28;20671;-85
2023/03/15 06:27:44;;;;;;;1.10;1.00;;;2.30;97.30;;;;;;5068057;28;20185;-85
2023/03/15 06:30:10;;;;;;;1.00;0.90;;;2.20;97.30;;;;;;5089047;28;20335;-85
2023/03/15 06:32:35;;;;;;;1.10;1.00;;;2.20;97.30;;;;;;5085461;28;20178;-85
2023/03/15 06:35:01;;;;;;;0.90;0.80;;;2.10;97.30;;;;;;5071816;28;20463;-85
2023/03/15 06:37:26;;;;;;;1.30;1.20;;;2.00;97.30;;;;;;5067853;28;20170;-85
2023/03/15 06:39:53;;;;;;;1.37;1.27;;;1.80;97.30;;;;;;5067764;28;20165;-86
2023/03/15 06:42:19;;;;;;;3.60;1.20;;;1.80;97.30;;;;;;5061816;28;20164;-85
2023/03/15 06:44:44;;;;;;;2.30;2.10;;;1.70;97.30;;;;;;5069039;28;20254;-84
2023/03/15 06:47:10;;;;;;;1.50;1.40;;;1.70;97.30;;;;;;5066935;28;20641;-84
2023/03/15 06:49:36;;;;;;;3.27;2.40;;;1.60;97.30;;;;;;5063858;28;20177;-85
2023/03/15 06:52:03;;;;;;;1.40;1.30;;;1.60;97.30;;;;;;5064100;28;20407;-84
2023/03/15 06:54:29;;;;;;;1.00;0.90;;;1.60;97.30;;;;;;5075700;28;20213;-84
2023/03/15 06:56:54;;;;;;;1.43;1.37;;;1.70;97.30;;;;;;5073141;28;20451;-85
2023/03/15 06:59:20;;;;;;;1.20;1.10;;;1.70;97.30;;;;;;5098982;28;20175;-83
2023/03/15 07:01:45;;;;;;;1.00;0.90;;;1.70;97.30;;;;;;5080352;28;20193;-84
2023/03/15 07:04:11;;;;;;;1.10;1.00;;;1.80;97.30;;;;;;5081029;28;20225;-84
2023/03/15 07:06:36;;;;;;;5.50;2.23;;;1.80;97.30;;;;;;5085658;28;20187;-85
2023/03/15 07:09:04;;;;;;;1.10;1.00;;;1.90;97.30;;;;;;5077122;28;20209;-84
2023/03/15 07:11:29;;;;;;;1.13;1.03;;;1.90;97.30;;;;;;5070757;28;20202;-84
2023/03/15 07:13:55;;;;;;;1.30;1.20;;;1.90;97.30;;;;;;5077473;28;20416;-84
2023/03/15 07:16:21;;;;;;;2.23;2.03;;;2.00;97.30;;;;;;5077096;28;20485;-84
2023/03/15 07:18:46;;;;;;;2.70;1.47;;;2.00;97.30;;;;;;5070525;28;20563;-84
2023/03/15 07:21:12;;;;;;;0.97;0.87;;;2.00;97.30;;;;;;5079574;28;20220;-83
2023/03/15 07:23:37;;;;;;;1.00;0.90;;;2.00;97.30;;;;;;5099329;28;20678;-85
2023/03/15 07:26:03;;;;;;;0.97;0.87;;;2.00;97.30;;;;;;5101432;28;20201;-84
2023/03/15 07:28:28;;;;;;;1.20;1.10;;;2.00;97.30;;;;;;5075250;28;20174;-85
2023/03/15 07:31:00;;;;;;;5.10;1.10;;;1.80;97.30;;;;;;5082650;28;20190;-83
2023/03/15 07:33:28;;;;;;;1.40;1.30;;;1.70;97.30;;;;;;5063784;28;20199;-83
2023/03/15 07:35:54;;;;;;;1.00;0.90;;;1.60;97.30;;;;;;5088470;28;20213;-83
2023/03/15 07:38:24;;;;;;;1.10;1.00;;;1.60;97.30;;;;;;5075030;28;20229;-83
2023/03/15 07:40:51;;;;;;;1.10;1.00;;;1.50;97.30;;;;;;5075598;28;20266;-84
2023/03/15 07:43:17;;;;;;;1.20;1.10;;;1.50;97.30;;;;;;5071838;28;20227;-84
2023/03/15 07:45:42;;;;;;;1.20;1.10;;;1.50;97.30;;;;;;5070589;28;20723;-83
2023/03/15 07:48:08;;;;;;;1.20;1.10;;;1.50;97.30;;;;;;5079439;28;20394;-84
2023/03/15 07:50:34;;;;;;;2.27;2.07;;;1.50;97.30;;;;;;5065184;28;20719;-84
2023/03/15 07:52:59;;;;;;;1.53;1.30;;;1.50;97.30;;;;;;5081574;28;20674;-84
2023/03/15 07:55:25;;;;;;;7.57;2.80;;;1.50;97.30;;;;;;5076652;28;20183;-84
2023/03/15 07:57:51;;;;;;;1.30;1.20;;;1.50;97.30;;;;;;5061801;28;20206;-85
2023/03/15 08:00:17;;;;;;;1.13;1.03;;;1.40;97.30;;;;;;5075022;28;20664;-84
2023/03/15 08:02:43;;;;;;;2.60;2.40;;;1.50;97.30;;;;;;5070609;28;20296;-85
2023/03/15 08:05:09;;;;;;;2.97;2.23;;;1.50;97.30;;;;;;5079337;28;20480;-85
2023/03/15 08:07:35;;;;;;;1.27;1.27;;;1.50;97.30;;;;;;5070100;28;20182;-84
2023/03/15 08:12:29;;;;;;;1.40;1.30;;;1.50;97.30;;;;;;5074520;28;20249;-84
2023/03/15 08:14:55;;;;;;;1.90;1.80;;;1.50;97.30;;;;;;5050998;28;20501;-82
2023/03/15 08:17:20;;;;;;;1.67;1.57;;;1.50;97.30;;;;;;5060111;28;20323;-80
2023/03/15 08:19:46;;;;;;;4.87;2.13;;;1.60;97.30;;;;;;5054693;28;20190;-82
2023/03/15 08:22:11;;;;;;;1.10;1.00;;;1.60;97.30;;;;;;5077379;28;20174;-80
2023/03/15 08:24:37;;;;;;;1.00;1.00;;;1.60;97.30;;;;;;5075970;28;20166;-79
2023/03/15 08:27:03;;;;;;;2.30;2.10;;;1.80;97.30;;;;;;5073525;28;20388;-79
2023/03/15 08:29:29;;;;;;;1.60;1.50;;;1.90;97.30;;;;;;5078336;28;20174;-82
2023/03/15 08:31:55;;;;;;;1.30;1.20;;;2.10;97.30;;;;;;5073648;28;20440;-79
2023/03/15 08:34:21;;;;;;;2.10;1.70;;;2.40;97.30;;;;;;5091648;28;20398;-79
2023/03/15 08:36:47;;;;;;;1.77;1.67;;;2.50;97.30;;;;;;5073709;28;20408;-79
2023/03/15 08:39:13;;;;;;;25.43;1.73;;;2.60;97.30;;;;;;5081224;28;20406;-84
2023/03/15 08:41:39;;;;;;;1.10;1.00;;;2.70;97.30;;;;;;5077827;28;20443;-79
2023/03/15 08:44:05;;;;;;;3.50;1.30;;;2.90;97.30;;;;;;5073773;28;20181;-84
2023/03/15 08:46:32;;;;;;;2.17;2.00;;;3.00;97.30;;;;;;5073039;28;20617;-80
2023/03/15 08:48:57;;;;;;;6.80;1.55;;;3.00;97.30;;;;;;5073120;28;20535;-79
2023/03/15 08:51:24;;;;;;;1.77;1.67;;;3.00;97.30;;;;;;5090824;28;20294;-80
2023/03/15 08:53:50;;;;;;;1.10;1.00;;;3.00;97.30;;;;;;5072657;28;20174;-79
2023/03/15 08:56:16;;;;;;;13.53;1.87;;;3.10;97.30;;;;;;5073101;28;20466;-80
2023/03/15 08:58:41;;;;;;;1.10;1.00;;;3.10;97.30;;;;;;5073082;28;20502;-81
2023/03/15 09:01:09;;;;;;;1.10;1.00;;;3.20;97.30;;;;;;5072530;28;20201;-79
2023/03/15 09:03:35;;;;;;;1.30;1.20;;;3.30;97.30;;;;;;5072537;28;20178;-79
2023/03/15 09:06:00;;;;;;;1.13;1.03;;;3.40;97.30;;;;;;5072734;28;20957;-79
2023/03/15 09:08:26;;;;;;;1.20;1.10;;;3.60;97.30;;;;;;5072825;28;20181;-80
2023/03/15 09:10:55;;;;;;;6.90;1.37;;;3.80;97.30;;;;;;5072870;28;20216;-84
2023/03/15 09:13:21;;;;;;;1.70;1.60;;;3.90;97.30;;;;;;5073908;28;20377;-85
2023/03/15 09:15:51;;;;;;;28.40;2.27;;;4.00;97.30;;;;;;5074287;28;20779;-85
2023/03/15 09:18:17;;;;;;;3.13;1.63;;;4.10;97.30;;;;;;5094963;28;20420;-85
2023/03/15 09:20:43;;;;;;;1.10;1.00;;;4.20;97.30;;;;;;5072806;28;20321;-84
2023/03/15 09:23:09;;;;;;;1.10;1.00;;;4.40;97.30;;;;;;5068814;28;20871;-84
2023/03/15 09:25:37;;;;;;;2.50;2.30;;;4.50;97.30;;;;;;5067048;28;20186;-84
2023/03/15 09:28:04;;;;;;;1.37;1.27;;;4.60;97.30;;;;;;5092350;28;20340;-85
2023/03/15 09:30:30;;;;;;;1.57;1.43;;;4.50;97.30;;;;;;5073356;28;20464;-84
2023/03/15 09:32:55;;;;;;;1.20;1.10;;;4.60;97.30;;;;;;5075675;28;20435;-85
2023/03/15 09:35:21;;;;;;;1.20;1.10;;;4.70;97.30;;;;;;5075271;28;20559;-85
2023/03/15 09:37:48;;;;;;;1.70;1.60;;;4.60;97.30;;;;;;5076299;28;20170;-85
2023/03/15 09:40:38;;;;;;;1.77;1.10;;;4.70;97.30;;;;;;5074319;28;20202;-84
2023/03/15 09:43:30;;;;;;;1.30;1.20;;;4.70;97.30;;;;;;5074553;28;20463;-84
2023/03/15 09:46:24;;;;;;;1.47;1.37;;;4.70;97.30;;;;;;5072266;28;20417;-85
2023/03/15 09:49:36;;;;;;;1.83;1.73;;;4.80;97.30;;;;;;5082087;28;20506;-84
2023/03/15 09:52:36;;;;;;;1.20;1.10;;;5.00;97.30;;;;;;5049944;28;20534;-85
2023/03/15 09:55:11;;;;;;;1.57;1.47;;;5.10;97.30;;;;;;5045793;28;20420;-83
2023/03/15 09:58:13;;;;;;;0.90;0.90;;;5.10;97.30;;;;;;5069433;28;20973;-83
2023/03/15 10:00:48;;;;;;;6.23;1.30;;;5.20;97.30;;;;;;5071199;28;20515;-85
2023/03/15 10:03:30;;;;;;;1.37;1.27;;;5.40;97.30;;;;;;5094474;28;20408;-85
2023/03/15 10:06:00;;;;;;;1.03;0.93;;;5.60;97.30;;;;;;5078192;28;20431;-84
2023/03/15 10:08:25;;;;;;;1.20;1.10;;;5.70;97.30;;;;;;5079126;28;20426;-84
2023/03/15 10:11:14;;;;;;;1.17;1.10;;;5.80;97.30;;;;;;5078930;28;20468;-85
2023/03/15 10:13:59;;;;;;;1.07;0.97;;;5.60;97.30;;;;;;5072597;28;20178;-84
2023/03/15 10:16:39;;;;;;;1.00;0.90;;;5.40;97.30;;;;;;5064068;28;20423;-84
2023/03/15 10:19:28;;;;;;;1.00;0.90;;;5.40;97.30;;;;;;5079746;28;20420;-84
2023/03/15 10:22:03;;;;;;;1.00;0.90;;;5.40;96.90;;;;;;5080438;28;20953;-84
2023/03/15 10:24:41;;;;;;;1.00;0.90;;;5.50;97.20;;;;;;5078152;28;20418;-84
2023/03/15 10:27:24;;;;;;;1.00;0.90;;;5.40;96.10;;;;;;5080805;28;20423;-84
2023/03/15 10:29:54;;;;;;;1.30;1.20;;;5.40;96.10;;;;;;5080226;28;20427;-84
2023/03/15 10:32:29;;;;;;;1.10;1.00;;;5.60;96.50;;;;;;5083843;28;20415;-85
2023/03/15 10:34:57;;;;;;;1.10;1.00;;;5.80;95.10;;;;;;5079776;28;20415;-84
2023/03/15 10:37:24;;;;;;;1.10;1.00;;;6.00;95.20;;;;;;5080710;28;20698;-83
2023/03/15 10:39:54;;;;;;;1.10;1.00;;;6.30;94.80;;;;;;5077204;28;20415;-84
2023/03/15 10:42:31;;;;;;;1.00;0.90;;;6.50;93.70;;;;;;5082312;28;20407;-84
2023/03/15 10:44:59;;;;;;;1.63;1.47;;;6.40;93.80;;;;;;5079982;28;20522;-83
2023/03/15 10:47:25;;;;;;;0.97;0.87;;;6.30;92.80;;;;;;5084575;28;20408;-83
2023/03/15 10:49:58;;;;;;;1.20;1.10;;;6.00;93.30;;;;;;5088084;28;20963;-83
2023/03/15 10:52:44;;;;;;;1.00;0.90;;;5.80;93.10;;;;;;5081813;28;20428;-84
2023/03/15 10:55:11;;;;;;;1.33;1.20;;;5.80;93.20;;;;;;5079855;28;20521;-83
2023/03/15 10:57:40;;;;;;;1.43;1.33;;;5.80;93.80;;;;;;5087977;28;20459;-83
2023/03/15 11:00:18;;;;;;;1.00;0.90;;;5.70;93.30;;;;;;5102391;28;20489;-82
2023/03/15 11:02:49;;;;;;;1.60;1.50;;;5.70;93.40;;;;;;5083172;28;21104;-83
2023/03/15 11:05:16;;;;;;;1.17;1.07;;;5.80;94.10;;;;;;5084416;28;20420;-83
2023/03/15 11:07:57;;;;;;;1.73;1.63;;;5.90;94.90;;;;;;5088229;28;20457;-84
2023/03/15 11:10:25;;;;;;;1.10;1.00;;;6.00;94.40;;;;;;5085547;28;20496;-84
2023/03/15 11:13:12;;;;;;;2.10;1.87;;;6.10;94.30;;;;;;5078960;28;20425;-83
2023/03/15 11:15:45;;;;;;;1.20;1.10;;;6.00;93.90;;;;;;5087849;28;20400;-84
2023/03/15 11:18:23;;;;;;;1.23;1.13;;;6.10;94.50;;;;;;5079027;28;20412;-82
2023/03/15 11:20:53;;;;;;;1.20;1.10;;;6.00;94.30;;;;;;5086336;28;20982;-82
2023/03/15 11:23:28;;;;;;;1.20;1.10;;;5.90;94.20;;;;;;5080159;28;20420;-86
2023/03/15 11:25:55;;;;;;;1.40;1.30;;;5.90;94.20;;;;;;5072348;28;20424;-83
2023/03/15 11:28:26;;;;;;;1.30;1.20;;;5.90;94.70;;;;;;5086690;28;20420;-83
2023/03/15 11:30:52;;;;;;;0.97;0.87;;;5.90;94.00;;;;;;5080917;28;20524;-84
2023/03/15 11:33:34;;;;;;;0.90;0.80;;;5.90;94.40;;;;;;5080034;28;20421;-86
2023/03/15 11:36:04;;;;;;;1.20;1.10;;;6.00;94.80;;;;;;5082942;28;20898;-84
2023/03/15 11:38:34;;;;;;;1.00;0.90;;;6.10;93.70;;;;;;5080004;28;20859;-83
2023/03/15 11:41:09;;;;;;;1.00;0.90;;;6.40;93.30;;;;;;5087282;28;20443;-85
2023/03/15 11:44:10;;;;;;;1.00;0.90;;;6.30;90.30;;;;;;5097613;28;20515;-83
2023/03/15 11:46:47;;;;;;;1.00;0.90;;;6.40;89.30;;;;;;5077596;28;20927;-82
2023/03/15 11:49:37;;;;;;;1.00;0.90;;;6.50;89.30;;;;;;5078898;28;20477;-84
2023/03/15 11:52:03;;;;;;;1.00;0.90;;;6.70;90.20;;;;;;5073293;28;20448;-83
2023/03/15 11:54:31;;;;;;;1.20;1.10;;;6.80;89.90;;;;;;5106251;28;20411;-85
2023/03/15 11:57:29;;;;;;;18.23;3.80;;;6.80;88.90;;;;;;5085400;28;20412;-85
2023/03/15 11:59:56;;;;;;;1.10;1.00;;;6.90;87.40;;;;;;5064522;28;20421;-85
2023/03/15 12:02:21;;;;;;;1.00;0.90;;;7.10;87.10;;;;;;5093961;28;20477;-85
2023/03/15 12:04:48;;;;;;;1.30;1.20;;;7.30;85.40;;;;;;5076351;28;20950;-83
2023/03/15 12:07:23;;;;;;;1.10;1.00;;;7.40;85.60;;;;;;5070428;28;20185;-86
2023/03/15 12:10:04;;;;;;;1.33;1.30;;;7.50;85.90;;;;;;5091374;28;20412;-86
2023/03/15 12:12:29;;;;;;;1.10;1.00;;;7.60;84.20;;;;;;5098951;28;20519;-87
2023/03/15 12:15:13;;;;;;;1.00;0.90;;;7.80;84.00;;;;;;5092716;28;20424;-86
2023/03/15 12:17:39;;;;;;;1.00;0.90;;;7.90;82.70;;;;;;5101361;28;20270;-87
2023/03/15 12:20:13;;;;;;;1.20;1.10;;;8.10;82.10;;;;;;5082588;28;20466;-85
2023/03/15 12:22:51;;;;;;;1.00;0.90;;;8.10;81.00;;;;;;5090657;28;20414;-86
2023/03/15 12:25:30;;;;;;;0.90;0.80;;;8.10;81.50;;;;;;5076870;28;20858;-84
2023/03/15 12:27:57;;;;;;;1.00;0.90;;;8.20;81.20;;;;;;5064184;28;20509;-86
2023/03/15 12:30:32;;;;;;;1.00;0.90;;;8.50;83.50;;;;;;5081837;28;20578;-85
2023/03/15 12:32:58;;;;;;;1.00;0.90;;;8.70;81.40;;;;;;5067460;28;20432;-87
2023/03/15 12:35:28;;;;;;;1.00;0.90;;;8.30;81.60;;;;;;5072888;28;20864;-85
2023/03/15 12:37:57;;;;;;;1.20;1.10;;;7.90;81.50;;;;;;5080883;28;20499;-85
2023/03/15 12:40:38;;;;;;;1.87;1.77;;;7.50;82.00;;;;;;5058228;28;20448;-84
2023/03/15 12:43:04;;;;;;;1.00;0.90;;;7.30;84.00;;;;;;5073761;28;20430;-85
2023/03/15 12:45:38;;;;;;;1.20;1.10;;;7.00;85.00;;;;;;5074540;28;20420;-86
2023/03/15 12:48:11;;;;;;;0.80;0.70;;;6.90;86.30;;;;;;5076304;28;20186;-85
2023/03/15 12:50:51;;;;;;;0.90;0.80;;;6.90;87.60;;;;;;5068029;28;20485;-85
2023/03/15 12:53:38;;;;;;;1.10;1.00;;;7.00;87.70;;;;;;5073134;28;20416;-86
2023/03/15 12:56:27;;;;;;;1.00;0.90;;;7.30;87.20;;;;;;5080009;28;20420;-86
2023/03/15 12:58:58;;;;;;;1.03;0.93;;;7.70;86.60;;;;;;5066744;28;20421;-86
2023/03/15 13:01:25;;;;;;;1.00;0.90;;;7.70;85.30;;;;;;5077592;28;20463;-87
2023/03/15 13:03:57;;;;;;;0.80;0.70;;;7.40;85.20;;;;;;5074401;28;20427;-85
2023/03/15 13:06:43;;;;;;;1.00;0.90;;;7.20;84.90;;;;;;5074176;28;20503;-84
2023/03/15 13:09:36;;;;;;;1.17;1.07;;;7.30;85.80;;;;;;5070885;28;20522;-86
2023/03/15 13:12:27;;;;;;;1.00;0.90;;;7.50;85.10;;;;;;5072439;28;20476;-86
2023/03/15 13:15:05;;;;;;;1.27;1.17;;;7.40;85.70;;;;;;5076232;28;20938;-86